createdAt,value
2022-11-29T00:01:06.248Z,26.63
2022-11-29T00:03:33.868Z,24.23
2022-11-29T00:06:08.277Z,24.23
2022-11-29T00:08:35.418Z,23.02
2022-11-29T00:11:38.640Z,18.85
2022-11-29T00:14:06.822Z,24.25
2022-11-29T00:16:33.771Z,23.85
2022-11-29T00:19:00.459Z,26.35
2022-11-29T00:21:27.167Z,26.33
2022-11-29T00:23:53.750Z,23.15
2022-11-29T00:26:20.690Z,25.35
2022-11-29T00:28:47.763Z,28.83
2022-11-29T00:31:20.493Z,26.38
2022-11-29T00:33:47.260Z,28.88
2022-11-29T00:36:14.065Z,23.52
2022-11-29T00:38:40.946Z,24.10
2022-11-29T00:41:08.187Z,22.70
2022-11-29T00:43:34.996Z,25.42
2022-11-29T00:46:02.137Z,27.05
2022-11-29T00:48:28.883Z,26.17
2022-11-29T00:50:55.434Z,29.38
2022-11-29T00:53:22.158Z,30.88
2022-11-29T00:55:49.742Z,33.33
2022-11-29T00:58:16.284Z,33.80
2022-11-29T01:00:42.955Z,34.38
2022-11-29T01:03:09.866Z,27.92
2022-11-29T01:05:36.474Z,26.33
2022-11-29T01:08:03.765Z,26.63
2022-11-29T01:10:30.379Z,28.67
2022-11-29T01:12:57.003Z,28.00
2022-11-29T01:15:23.609Z,31.33
2022-11-29T01:17:50.455Z,35.67
2022-11-29T01:20:17.057Z,26.50
2022-11-29T01:22:43.723Z,25.42
2022-11-29T01:25:11.689Z,28.70
2022-11-29T01:27:38.387Z,30.30
2022-11-29T01:30:06.866Z,39.33
2022-11-29T01:32:33.512Z,40.80
2022-11-29T01:35:00.153Z,36.60
2022-11-29T01:37:29.244Z,31.27
2022-11-29T01:39:55.845Z,32.90
2022-11-29T01:42:22.690Z,30.58
2022-11-29T01:45:04.909Z,31.45
2022-11-29T01:47:31.811Z,28.52
2022-11-29T01:49:58.672Z,31.33
2022-11-29T01:52:32.027Z,31.27
2022-11-29T01:55:01.886Z,31.95
2022-11-29T01:57:29.084Z,32.38
2022-11-29T02:00:02.714Z,28.08
2022-11-29T02:02:36.347Z,33.13
2022-11-29T02:05:04.312Z,30.65
2022-11-29T02:07:31.147Z,26.60
2022-11-29T02:09:57.758Z,31.35
2022-11-29T02:12:46.098Z,33.30
2022-11-29T02:18:12.502Z,26.00
2022-11-29T02:21:16.556Z,31.27
2022-11-29T02:23:58.407Z,29.38
2022-11-29T02:26:43.216Z,31.40
2022-11-29T02:29:41.854Z,33.13
2022-11-29T02:32:35.808Z,34.60
2022-11-29T02:35:20.900Z,33.97
2022-11-29T02:38:24.312Z,32.15
2022-11-29T02:41:03.549Z,29.88
2022-11-29T02:44:08.582Z,34.03
2022-11-29T02:46:56.649Z,39.75
2022-11-29T02:49:28.718Z,33.20
2022-11-29T02:51:57.827Z,36.40
2022-11-29T02:54:36.187Z,30.33
2022-11-29T02:57:16.258Z,34.10
2022-11-29T02:59:53.775Z,34.97
2022-11-29T03:02:45.669Z,37.27
2022-11-29T03:05:32.863Z,32.45
2022-11-29T03:08:17.196Z,36.80
2022-11-29T03:11:03.670Z,32.35
2022-11-29T03:13:58.865Z,31.55
2022-11-29T03:16:42.806Z,29.55
2022-11-29T03:19:12.742Z,33.95
2022-11-29T03:22:11.251Z,34.70
2022-11-29T03:24:50.333Z,33.97
2022-11-29T03:27:22.170Z,33.90
2022-11-29T03:30:09.516Z,31.27
2022-11-29T03:32:38.923Z,27.85
2022-11-29T03:35:25.912Z,30.48
2022-11-29T03:38:01.599Z,35.05
2022-11-29T03:41:10.162Z,32.20
2022-11-29T03:44:03.790Z,27.70
2022-11-29T03:46:38.299Z,33.45
2022-11-29T03:49:13.805Z,34.80
2022-11-29T03:51:52.519Z,37.38
2022-11-29T03:54:43.442Z,31.90
2022-11-29T03:57:11.175Z,32.63
2022-11-29T03:59:50.798Z,31.20
2022-11-29T04:02:34.232Z,32.60
2022-11-29T04:05:19.574Z,29.25
2022-11-29T04:07:52.100Z,32.03
2022-11-29T04:10:51.040Z,33.67
2022-11-29T04:13:38.696Z,33.22
2022-11-29T04:16:11.156Z,33.08
2022-11-29T04:19:19.473Z,31.25
2022-11-29T04:22:04.620Z,32.10
2022-11-29T04:25:08.463Z,30.13
2022-11-29T04:28:07.174Z,30.85
2022-11-29T04:30:59.885Z,29.58
2022-11-29T04:34:20.938Z,34.20
2022-11-29T04:37:25.043Z,35.10
2022-11-29T04:40:35.692Z,31.90
2022-11-29T04:43:30.315Z,36.00
2022-11-29T04:46:02.749Z,41.53
2022-11-29T04:48:51.751Z,34.03
2022-11-29T04:51:18.256Z,46.75
2022-11-29T04:54:09.564Z,38.83
2022-11-29T04:56:52.857Z,29.90
2022-11-29T04:59:38.057Z,35.63
2022-11-29T05:02:30.966Z,28.95
2022-11-29T05:05:15.747Z,35.30
2022-11-29T05:08:02.936Z,40.47
2022-11-29T05:10:43.895Z,35.03
2022-11-29T05:13:24.134Z,31.95
2022-11-29T05:16:08.138Z,42.22
2022-11-29T05:18:54.638Z,38.63
2022-11-29T05:21:36.411Z,36.10
2022-11-29T05:24:18.811Z,32.13
2022-11-29T05:26:45.279Z,30.38
2022-11-29T05:29:20.839Z,30.88
2022-11-29T05:31:59.691Z,31.10
2022-11-29T05:34:58.656Z,27.70
2022-11-29T05:37:49.130Z,26.25
2022-11-29T05:40:43.622Z,26.65
2022-11-29T05:43:32.557Z,41.83
2022-11-29T05:46:13.400Z,35.13
2022-11-29T05:48:47.664Z,29.05
2022-11-29T05:51:23.411Z,31.52
2022-11-29T05:53:59.274Z,35.90
2022-11-29T05:56:37.475Z,30.98
2022-11-29T05:59:09.497Z,36.10
2022-11-29T06:01:58.084Z,30.38
2022-11-29T06:04:28.803Z,32.92
2022-11-29T06:07:08.615Z,37.58
2022-11-29T06:09:40.625Z,33.97
2022-11-29T06:12:20.654Z,31.65
2022-11-29T06:15:02.842Z,32.35
2022-11-29T06:17:41.726Z,38.70
2022-11-29T06:20:27.048Z,35.80
2022-11-29T06:23:05.632Z,37.60
2022-11-29T06:26:03.544Z,33.85
2022-11-29T06:28:30.522Z,42.80
2022-11-29T06:31:15.301Z,37.53
2022-11-29T06:33:51.488Z,36.30
2022-11-29T06:36:24.650Z,41.03
2022-11-29T06:38:51.504Z,35.50
2022-11-29T06:41:21.231Z,36.15
2022-11-29T06:43:48.298Z,37.17
2022-11-29T06:46:41.269Z,37.40
2022-11-29T06:49:12.181Z,37.67
2022-11-29T06:51:44.056Z,36.50
2022-11-29T06:54:16.472Z,36.53
2022-11-29T06:56:57.859Z,37.38
2022-11-29T06:59:36.702Z,46.80
2022-11-29T07:02:51.065Z,38.60
2022-11-29T07:05:31.550Z,33.70
2022-11-29T07:08:24.406Z,32.95
2022-11-29T07:10:54.084Z,28.70
2022-11-29T07:13:21.615Z,27.67
2022-11-29T07:16:18.177Z,39.65
2022-11-29T07:19:10.103Z,47.00
2022-11-29T07:21:43.889Z,41.20
2022-11-29T07:24:40.782Z,41.70
2022-11-29T07:27:13.402Z,42.22
2022-11-29T07:30:05.271Z,38.15
2022-11-29T07:32:34.770Z,42.85
2022-11-29T07:35:08.478Z,42.88
2022-11-29T07:37:57.585Z,37.42
2022-11-29T07:40:34.424Z,46.90
2022-11-29T07:43:31.158Z,43.38
2022-11-29T07:45:57.911Z,37.22
2022-11-29T07:48:24.614Z,36.75
2022-11-29T07:50:51.223Z,39.03
2022-11-29T07:53:19.791Z,41.92
2022-11-29T07:58:14.354Z,34.92
2022-11-29T08:00:42.300Z,41.60
2022-11-29T08:03:09.571Z,64.47
2022-11-29T08:05:37.605Z,50.63
2022-11-29T08:08:04.972Z,44.78
2022-11-29T08:10:31.990Z,44.72
2022-11-29T08:12:58.654Z,40.63
2022-11-29T08:15:25.927Z,42.85
2022-11-29T08:17:53.306Z,36.50
2022-11-29T08:20:19.953Z,36.40
2022-11-29T08:22:59.502Z,29.45
2022-11-29T08:25:27.301Z,35.30
2022-11-29T08:27:54.804Z,29.15
2022-11-29T08:30:25.009Z,29.05
2022-11-29T08:32:52.211Z,30.80
2022-11-29T08:35:20.300Z,30.45
2022-11-29T08:37:46.878Z,27.95
2022-11-29T08:40:14.272Z,32.03
2022-11-29T08:42:40.944Z,30.02
2022-11-29T08:45:09.475Z,32.67
2022-11-29T08:50:17.406Z,26.42
2022-11-29T08:53:05.277Z,31.50
2022-11-29T08:55:34.430Z,36.53
2022-11-29T08:58:06.938Z,30.40
2022-11-29T09:00:34.323Z,28.52
2022-11-29T09:03:24.177Z,27.00
2022-11-29T09:05:51.067Z,29.33
2022-11-29T09:08:17.828Z,27.45
2022-11-29T09:10:44.654Z,28.80
2022-11-29T09:13:11.430Z,27.17
2022-11-29T09:15:39.006Z,26.65
2022-11-29T09:18:05.915Z,32.10
2022-11-29T09:20:34.152Z,35.97
2022-11-29T09:23:01.079Z,32.33
2022-11-29T09:25:28.119Z,32.90
2022-11-29T09:27:58.062Z,37.53
2022-11-29T09:30:24.719Z,34.70
2022-11-29T09:32:51.482Z,27.90
2022-11-29T09:35:18.300Z,38.53
2022-11-29T09:37:44.862Z,42.78
2022-11-29T09:40:28.052Z,33.63
2022-11-29T09:43:27.328Z,34.90
2022-11-29T09:46:00.635Z,35.17
2022-11-29T09:48:53.290Z,31.25
2022-11-29T09:51:24.224Z,29.75
2022-11-29T09:54:25.025Z,34.85
2022-11-29T09:56:55.226Z,38.28
2022-11-29T09:59:33.843Z,35.92
2022-11-29T10:02:21.283Z,36.38
2022-11-29T10:04:53.074Z,42.13
2022-11-29T10:07:50.981Z,42.53
2022-11-29T10:10:22.759Z,28.92
2022-11-29T10:12:53.948Z,34.85
2022-11-29T10:15:25.374Z,41.95
2022-11-29T10:18:03.187Z,37.85
2022-11-29T10:20:37.856Z,44.63
2022-11-29T10:23:33.288Z,46.28
2022-11-29T10:26:00.265Z,39.80
2022-11-29T10:28:32.457Z,50.30
2022-11-29T10:31:40.227Z,41.55
2022-11-29T10:34:15.846Z,48.70
2022-11-29T10:36:46.518Z,41.90
2022-11-29T10:39:39.583Z,40.65
2022-11-29T10:42:35.750Z,39.05
2022-11-29T10:45:03.684Z,44.58
2022-11-29T10:47:31.278Z,41.45
2022-11-29T10:49:58.219Z,43.17
2022-11-29T10:52:24.781Z,36.72
2022-11-29T10:54:56.230Z,38.25
2022-11-29T10:57:23.176Z,33.80
2022-11-29T11:00:10.777Z,36.55
2022-11-29T11:02:38.029Z,34.90
2022-11-29T11:05:12.929Z,33.65
2022-11-29T11:07:41.137Z,39.17
2022-11-29T11:10:22.670Z,32.65
2022-11-29T11:13:04.878Z,33.53
2022-11-29T11:15:32.126Z,32.97
2022-11-29T11:18:06.568Z,33.50
2022-11-29T11:20:35.639Z,42.13
2022-11-29T11:23:04.754Z,38.35
2022-11-29T11:25:35.547Z,36.42
2022-11-29T11:28:15.875Z,30.95
2022-11-29T11:30:50.280Z,38.45
2022-11-29T11:33:25.559Z,35.63
2022-11-29T11:36:20.077Z,32.95
2022-11-29T11:38:56.827Z,35.42
2022-11-29T11:41:51.090Z,36.55
2022-11-29T11:44:47.915Z,30.08
2022-11-29T11:47:26.340Z,38.90
2022-11-29T11:50:04.886Z,30.83
2022-11-29T11:55:18.448Z,47.00
2022-11-29T11:57:45.256Z,30.08
2022-11-29T12:01:03.919Z,37.78
2022-11-29T12:03:39.692Z,29.15
2022-11-29T12:06:06.323Z,34.33
2022-11-29T12:08:34.022Z,34.20
2022-11-29T12:11:07.488Z,33.72
2022-11-29T12:13:36.310Z,38.22
2022-11-29T12:18:45.108Z,26.60
2022-11-29T12:21:17.616Z,34.42
2022-11-29T12:24:05.361Z,30.20
2022-11-29T12:29:29.005Z,42.67
2022-11-29T12:32:26.447Z,37.88
2022-11-29T12:35:02.627Z,38.88
2022-11-29T12:37:38.351Z,27.08
2022-11-29T12:40:23.455Z,35.65
2022-11-29T12:43:14.253Z,40.25
2022-11-29T12:46:12.885Z,35.17
2022-11-29T12:49:02.697Z,42.13
2022-11-29T12:51:50.667Z,38.10
2022-11-29T12:54:43.966Z,38.47
2022-11-29T12:57:38.823Z,41.03
2022-11-29T13:00:14.241Z,35.65
2022-11-29T13:03:05.237Z,37.47
2022-11-29T13:05:51.058Z,28.23
2022-11-29T13:08:29.145Z,33.42
2022-11-29T13:11:04.717Z,33.13
2022-11-29T13:13:41.720Z,28.85
2022-11-29T13:16:39.626Z,25.80
2022-11-29T13:19:12.230Z,30.02
2022-11-29T13:21:56.771Z,28.65
2022-11-29T13:24:34.295Z,32.72
2022-11-29T13:27:06.685Z,32.70
2022-11-29T13:29:34.440Z,38.40
2022-11-29T13:32:01.683Z,33.15
2022-11-29T13:34:36.827Z,30.95
2022-11-29T13:37:25.775Z,33.30
2022-11-29T13:40:05.843Z,30.40
2022-11-29T13:42:35.378Z,33.42
2022-11-29T13:45:21.923Z,36.78
2022-11-29T13:47:51.094Z,36.08
2022-11-29T13:50:39.989Z,34.20
2022-11-29T13:53:20.790Z,39.15
2022-11-29T13:56:01.418Z,43.17
2022-11-29T13:58:28.084Z,39.17
2022-11-29T14:01:02.947Z,42.90
2022-11-29T14:03:45.555Z,39.80
2022-11-29T14:06:21.781Z,35.65
2022-11-29T14:11:59.320Z,42.83
2022-11-29T14:14:28.723Z,37.88
2022-11-29T14:17:01.628Z,31.35
2022-11-29T14:19:35.681Z,38.67
2022-11-29T14:22:02.180Z,43.15
2022-11-29T14:24:38.071Z,36.97
2022-11-29T14:27:12.406Z,36.15
2022-11-29T14:29:48.361Z,38.80
2022-11-29T14:32:27.077Z,36.40
2022-11-29T14:35:12.079Z,43.28
2022-11-29T14:37:53.398Z,37.67
2022-11-29T14:40:32.118Z,36.78
2022-11-29T14:43:00.638Z,40.03
2022-11-29T14:47:58.064Z,40.17
2022-11-29T14:50:27.622Z,38.88
2022-11-29T14:52:54.269Z,43.28
2022-11-29T14:55:20.756Z,35.20
2022-11-29T14:57:47.308Z,40.80
2022-11-29T15:00:19.397Z,43.40
2022-11-29T15:03:24.799Z,43.17
2022-11-29T15:05:55.670Z,41.15
2022-11-29T15:08:44.445Z,40.08
2022-11-29T15:11:10.952Z,39.67
2022-11-29T15:13:39.950Z,36.22
2022-11-29T15:16:13.039Z,39.42
2022-11-29T15:19:06.450Z,38.35
2022-11-29T15:21:32.951Z,42.03
2022-11-29T15:24:03.085Z,38.42
2022-11-29T15:26:29.755Z,44.83
2022-11-29T15:29:17.047Z,39.25
2022-11-29T15:31:44.721Z,39.63
2022-11-29T15:34:20.880Z,44.43
2022-11-29T15:36:47.600Z,39.60
2022-11-29T15:39:43.343Z,38.38
2022-11-29T15:42:13.356Z,30.45
2022-11-29T15:44:53.198Z,40.83
2022-11-29T15:47:25.378Z,34.88
2022-11-29T15:49:53.195Z,36.13
2022-11-29T15:52:33.846Z,43.47
2022-11-29T15:55:02.815Z,51.42
2022-11-29T15:57:36.075Z,43.63
2022-11-29T16:00:05.795Z,45.40
2022-11-29T16:02:34.441Z,36.42
2022-11-29T16:05:16.938Z,44.38
2022-11-29T16:07:44.564Z,37.67
2022-11-29T16:10:15.103Z,47.93
2022-11-29T16:12:56.539Z,41.28
2022-11-29T16:15:43.335Z,50.58
2022-11-29T16:18:13.054Z,32.50
2022-11-29T16:20:39.991Z,42.35
2022-11-29T16:23:14.670Z,40.20
2022-11-29T16:25:58.987Z,43.63
2022-11-29T16:28:28.010Z,41.67
2022-11-29T16:30:54.636Z,41.67
2022-11-29T16:33:23.925Z,42.45
2022-11-29T16:35:51.534Z,43.13
2022-11-29T16:38:22.920Z,44.00
2022-11-29T16:41:05.670Z,43.90
2022-11-29T16:43:44.430Z,37.92
2022-11-29T16:46:20.152Z,40.85
2022-11-29T16:48:50.270Z,37.60
2022-11-29T16:51:27.093Z,35.78
2022-11-29T16:53:55.815Z,46.42
2022-11-29T16:56:24.459Z,37.28
2022-11-29T17:01:41.472Z,45.47
2022-11-29T17:04:09.103Z,39.63
2022-11-29T17:06:35.934Z,33.65
2022-11-29T17:09:02.639Z,34.50
2022-11-29T17:11:29.191Z,37.58
2022-11-29T17:13:55.796Z,28.75
2022-11-29T17:16:23.921Z,30.83
2022-11-29T17:18:52.702Z,28.55
2022-11-29T17:21:27.397Z,34.28
2022-11-29T17:23:54.516Z,27.35
2022-11-29T17:26:21.935Z,33.33
2022-11-29T17:28:50.306Z,27.77
2022-11-29T17:31:19.904Z,28.70
2022-11-29T17:33:46.537Z,32.70
2022-11-29T17:36:16.582Z,30.90
2022-11-29T17:38:44.326Z,30.17
2022-11-29T17:41:16.499Z,31.40
2022-11-29T17:43:43.057Z,37.85
2022-11-29T17:46:10.935Z,30.38
2022-11-29T17:48:38.773Z,35.05
2022-11-29T17:51:17.233Z,32.80
2022-11-29T17:53:53.585Z,27.85
2022-11-29T17:56:23.001Z,34.80
2022-11-29T17:58:57.715Z,35.00
2022-11-29T18:01:30.151Z,36.67
2022-11-29T18:04:00.442Z,31.48
2022-11-29T18:06:34.423Z,28.75
2022-11-29T18:09:02.038Z,33.30
2022-11-29T18:11:41.613Z,36.50
2022-11-29T18:14:15.311Z,32.63
2022-11-29T18:19:11.398Z,30.60
2022-11-29T18:21:38.231Z,29.83
2022-11-29T18:24:06.211Z,36.05
2022-11-29T18:26:34.411Z,26.65
2022-11-29T18:29:01.099Z,23.13
2022-11-29T18:31:32.846Z,30.13
2022-11-29T18:34:01.290Z,33.20
2022-11-29T18:36:30.557Z,31.85
2022-11-29T18:39:00.011Z,25.25
2022-11-29T18:41:28.322Z,30.73
2022-11-29T18:44:07.087Z,29.63
2022-11-29T18:46:37.306Z,26.98
2022-11-29T18:49:07.072Z,29.95
2022-11-29T18:51:34.442Z,31.58
2022-11-29T18:54:01.687Z,27.90
2022-11-29T18:56:30.664Z,27.75
2022-11-29T18:58:59.865Z,33.83
2022-11-29T19:01:28.565Z,29.40
2022-11-29T19:03:57.753Z,28.98
2022-11-29T19:06:38.995Z,29.88
2022-11-29T19:09:11.197Z,34.45
2022-11-29T19:11:37.903Z,33.35
2022-11-29T19:14:06.459Z,30.83
2022-11-29T19:19:00.880Z,36.72
2022-11-29T19:21:29.082Z,37.55
2022-11-29T19:23:57.507Z,38.22
2022-11-29T19:26:26.663Z,40.88
2022-11-29T19:28:54.114Z,32.33
2022-11-29T19:31:23.949Z,36.85
2022-11-29T19:33:52.377Z,35.08
2022-11-29T19:36:24.026Z,39.00
2022-11-29T19:38:53.743Z,33.60
2022-11-29T19:41:31.453Z,38.67
2022-11-29T19:43:59.929Z,35.25
2022-11-29T19:46:30.122Z,30.13
2022-11-29T19:48:58.199Z,33.83
2022-11-29T19:51:25.956Z,37.67
2022-11-29T19:53:54.919Z,37.22
2022-11-29T19:56:22.221Z,37.60
2022-11-29T19:58:49.306Z,33.92
2022-11-29T20:01:18.493Z,38.53
2022-11-29T20:03:45.346Z,36.47
2022-11-29T20:06:13.506Z,39.45
2022-11-29T20:08:40.949Z,32.80
2022-11-29T20:11:11.038Z,34.17
2022-11-29T20:13:38.364Z,34.78
2022-11-29T20:16:06.983Z,33.38
2022-11-29T20:21:07.962Z,29.85
2022-11-29T20:23:34.812Z,26.60
2022-11-29T20:26:01.795Z,26.77
2022-11-29T20:28:28.410Z,38.65
2022-11-29T20:30:55.365Z,34.70
2022-11-29T20:33:24.241Z,38.60
2022-11-29T20:35:56.351Z,32.92
2022-11-29T20:38:32.817Z,28.90
2022-11-29T20:41:08.678Z,36.75
2022-11-29T20:43:41.404Z,39.78
2022-11-29T20:46:08.226Z,36.70
2022-11-29T20:48:35.054Z,32.92
2022-11-29T20:51:02.247Z,32.78
2022-11-29T20:53:36.215Z,38.90
2022-11-29T20:56:04.294Z,42.28
2022-11-29T20:58:31.099Z,51.60
2022-11-29T21:00:58.577Z,40.38
2022-11-29T21:03:26.087Z,41.35
2022-11-29T21:05:53.309Z,41.13
2022-11-29T21:08:23.145Z,35.95
2022-11-29T21:10:50.407Z,39.15
2022-11-29T21:13:19.447Z,40.75
2022-11-29T21:15:46.577Z,43.38
2022-11-29T21:18:20.467Z,45.85
2022-11-29T21:21:00.709Z,38.72
2022-11-29T21:23:38.404Z,40.05
2022-11-29T21:26:17.607Z,41.45
2022-11-29T21:28:55.646Z,41.67
2022-11-29T21:31:22.575Z,45.45
2022-11-29T21:33:49.431Z,49.13
2022-11-29T21:36:16.087Z,46.30
2022-11-29T21:38:42.663Z,48.28
2022-11-29T21:41:09.251Z,46.55
2022-11-29T21:44:05.046Z,41.88
2022-11-29T21:46:22.720Z,37.85
2022-11-29T21:48:50.094Z,42.55
2022-11-29T21:51:16.655Z,37.80
2022-11-29T21:53:43.234Z,41.70
2022-11-29T21:56:11.202Z,37.53
2022-11-29T21:58:39.070Z,36.47
2022-11-29T22:01:17.033Z,34.60
2022-11-29T22:03:44.148Z,41.42
2022-11-29T22:06:16.567Z,41.67
2022-11-29T22:08:43.119Z,36.25
2022-11-29T22:11:12.154Z,39.63
2022-11-29T22:13:58.191Z,36.58
2022-11-29T22:16:25.111Z,37.35
2022-11-29T22:18:51.906Z,39.13
2022-11-29T22:21:18.501Z,38.55
2022-11-29T22:23:45.050Z,36.00
2022-11-29T22:26:12.027Z,40.10
2022-11-29T22:28:38.812Z,43.75
2022-11-29T22:31:07.135Z,41.80
2022-11-29T22:33:33.951Z,43.42
2022-11-29T22:36:10.500Z,48.45
2022-11-29T22:38:37.429Z,46.22
2022-11-29T22:41:06.724Z,43.50
2022-11-29T22:43:33.794Z,49.95
2022-11-29T22:46:16.138Z,43.33
2022-11-29T22:48:44.060Z,49.03
2022-11-29T22:51:15.611Z,52.17
2022-11-29T22:53:47.179Z,50.80
2022-11-29T22:56:13.809Z,46.63
2022-11-29T22:58:40.375Z,47.50
2022-11-29T23:01:09.732Z,44.22
2022-11-29T23:03:39.377Z,44.58
2022-11-29T23:06:17.203Z,45.67
2022-11-29T23:08:45.187Z,44.53
2022-11-29T23:11:17.232Z,38.83
2022-11-29T23:13:44.319Z,40.17
2022-11-29T23:16:14.266Z,40.05
2022-11-29T23:18:42.414Z,40.67
2022-11-29T23:21:23.794Z,39.63
2022-11-29T23:23:56.054Z,38.85
2022-11-29T23:26:44.086Z,32.20
2022-11-29T23:29:14.975Z,39.07
2022-11-29T23:31:41.632Z,35.00
2022-11-29T23:34:08.901Z,43.45
2022-11-29T23:36:35.686Z,38.55
2022-11-29T23:39:02.403Z,36.75
2022-11-29T23:41:28.994Z,35.92
2022-11-29T23:43:55.601Z,36.85
2022-11-29T23:46:23.967Z,37.13
2022-11-29T23:48:51.339Z,38.53
2022-11-29T23:51:18.902Z,39.22
2022-11-29T23:53:46.706Z,36.40
2022-11-29T23:56:15.658Z,39.42
2022-11-29T23:58:43.364Z,41.00
